sensor_id;sensor_type;location;lat;lon;timestamp;temperature;humidity
39751;DHT22;37579;51.074;17.004;2022-12-28T00:02:06;23.90;57.30
39751;DHT22;37579;51.074;17.004;2022-12-28T00:04:31;23.90;57.30
39751;DHT22;37579;51.074;17.004;2022-12-28T00:06:57;23.90;57.30
39751;DHT22;37579;51.074;17.004;2022-12-28T00:09:24;23.90;57.30
39751;DHT22;37579;51.074;17.004;2022-12-28T00:11:50;23.90;57.30
39751;DHT22;37579;51.074;17.004;2022-12-28T00:14:15;23.90;57.30
39751;DHT22;37579;51.074;17.004;2022-12-28T00:16:41;23.90;57.90
39751;DHT22;37579;51.074;17.004;2022-12-28T00:19:15;23.80;57.30
39751;DHT22;37579;51.074;17.004;2022-12-28T00:21:42;23.90;57.20
39751;DHT22;37579;51.074;17.004;2022-12-28T00:24:22;23.80;57.20
39751;DHT22;37579;51.074;17.004;2022-12-28T00:26:49;23.80;57.40
39751;DHT22;37579;51.074;17.004;2022-12-28T00:29:16;23.80;57.30
39751;DHT22;37579;51.074;17.004;2022-12-28T00:31:42;23.80;57.30
39751;DHT22;37579;51.074;17.004;2022-12-28T00:34:10;23.80;57.30
39751;DHT22;37579;51.074;17.004;2022-12-28T00:36:36;23.80;57.30
39751;DHT22;37579;51.074;17.004;2022-12-28T00:39:02;23.80;57.40
39751;DHT22;37579;51.074;17.004;2022-12-28T00:41:28;23.80;57.40
39751;DHT22;37579;51.074;17.004;2022-12-28T00:43:53;23.70;57.40
39751;DHT22;37579;51.074;17.004;2022-12-28T00:46:19;23.70;57.30
39751;DHT22;37579;51.074;17.004;2022-12-28T00:48:45;23.70;57.30
39751;DHT22;37579;51.074;17.004;2022-12-28T00:51:15;23.70;57.40
39751;DHT22;37579;51.074;17.004;2022-12-28T00:53:42;23.70;57.30
39751;DHT22;37579;51.074;17.004;2022-12-28T00:56:16;23.70;57.40
39751;DHT22;37579;51.074;17.004;2022-12-28T00:58:43;23.70;57.40
39751;DHT22;37579;51.074;17.004;2022-12-28T01:01:15;23.70;57.40
39751;DHT22;37579;51.074;17.004;2022-12-28T01:03:41;23.70;57.40
39751;DHT22;37579;51.074;17.004;2022-12-28T01:06:09;23.70;57.40
39751;DHT22;37579;51.074;17.004;2022-12-28T01:08:36;23.60;57.30
39751;DHT22;37579;51.074;17.004;2022-12-28T01:11:18;23.70;57.20
39751;DHT22;37579;51.074;17.004;2022-12-28T01:13:45;23.70;57.30
39751;DHT22;37579;51.074;17.004;2022-12-28T01:16:13;23.60;57.20
39751;DHT22;37579;51.074;17.004;2022-12-28T01:18:40;23.70;57.30
39751;DHT22;37579;51.074;17.004;2022-12-28T01:21:15;23.60;57.30
39751;DHT22;37579;51.074;17.004;2022-12-28T01:23:42;23.60;57.30
39751;DHT22;37579;51.074;17.004;2022-12-28T01:26:08;23.60;57.20
39751;DHT22;37579;51.074;17.004;2022-12-28T01:28:34;23.60;57.20
39751;DHT22;37579;51.074;17.004;2022-12-28T01:31:06;23.60;57.30
39751;DHT22;37579;51.074;17.004;2022-12-28T01:33:33;23.60;57.20
39751;DHT22;37579;51.074;17.004;2022-12-28T01:36:08;23.60;57.20
39751;DHT22;37579;51.074;17.004;2022-12-28T01:38:36;23.60;57.20
39751;DHT22;37579;51.074;17.004;2022-12-28T01:41:02;23.60;57.30
39751;DHT22;37579;51.074;17.004;2022-12-28T01:43:40;23.50;57.80
39751;DHT22;37579;51.074;17.004;2022-12-28T01:46:17;23.60;57.30
39751;DHT22;37579;51.074;17.004;2022-12-28T01:48:54;23.60;57.10
39751;DHT22;37579;51.074;17.004;2022-12-28T01:51:21;23.60;57.10
39751;DHT22;37579;51.074;17.004;2022-12-28T01:53:49;23.60;57.10
39751;DHT22;37579;51.074;17.004;2022-12-28T01:56:16;23.60;57.10
39751;DHT22;37579;51.074;17.004;2022-12-28T01:58:42;23.60;57.20
39751;DHT22;37579;51.074;17.004;2022-12-28T02:01:10;23.60;57.20
39751;DHT22;37579;51.074;17.004;2022-12-28T02:03:36;23.60;57.20
39751;DHT22;37579;51.074;17.004;2022-12-28T02:06:05;23.60;57.00
39751;DHT22;37579;51.074;17.004;2022-12-28T02:08:48;23.60;57.20
39751;DHT22;37579;51.074;17.004;2022-12-28T02:11:18;23.60;57.10
39751;DHT22;37579;51.074;17.004;2022-12-28T02:13:46;23.50;57.00
39751;DHT22;37579;51.074;17.004;2022-12-28T02:16:13;23.50;57.10
39751;DHT22;37579;51.074;17.004;2022-12-28T02:18:42;23.50;57.00
39751;DHT22;37579;51.074;17.004;2022-12-28T02:34:16;23.50;57.00
39751;DHT22;37579;51.074;17.004;2022-12-28T02:37:26;23.50;57.00
39751;DHT22;37579;51.074;17.004;2022-12-28T02:39:49;23.50;56.90
39751;DHT22;37579;51.074;17.004;2022-12-28T02:42:17;23.50;56.80
39751;DHT22;37579;51.074;17.004;2022-12-28T02:44:43;23.50;56.80
39751;DHT22;37579;51.074;17.004;2022-12-28T02:47:28;23.50;56.80
39751;DHT22;37579;51.074;17.004;2022-12-28T02:50:14;23.50;56.80
39751;DHT22;37579;51.074;17.004;2022-12-28T02:53:00;23.50;56.80
39751;DHT22;37579;51.074;17.004;2022-12-28T03:04:23;23.40;56.80
39751;DHT22;37579;51.074;17.004;2022-12-28T03:10:09;23.40;56.70
39751;DHT22;37579;51.074;17.004;2022-12-28T03:12:52;23.40;56.70
39751;DHT22;37579;51.074;17.004;2022-12-28T03:15:27;23.40;56.70
39751;DHT22;37579;51.074;17.004;2022-12-28T03:18:02;23.40;56.70
39751;DHT22;37579;51.074;17.004;2022-12-28T03:20:49;23.40;56.70
39751;DHT22;37579;51.074;17.004;2022-12-28T03:23:34;23.40;56.70
39751;DHT22;37579;51.074;17.004;2022-12-28T03:26:22;23.40;56.80
39751;DHT22;37579;51.074;17.004;2022-12-28T03:29:08;23.40;56.90
39751;DHT22;37579;51.074;17.004;2022-12-28T03:31:55;23.40;56.70
39751;DHT22;37579;51.074;17.004;2022-12-28T03:34:22;23.40;56.60
39751;DHT22;37579;51.074;17.004;2022-12-28T03:36:56;23.40;56.40
39751;DHT22;37579;51.074;17.004;2022-12-28T03:47:55;23.60;55.60
39751;DHT22;37579;51.074;17.004;2022-12-28T03:50:23;23.70;55.50
39751;DHT22;37579;51.074;17.004;2022-12-28T03:52:50;23.70;55.40
39751;DHT22;37579;51.074;17.004;2022-12-28T03:55:17;23.70;55.40
39751;DHT22;37579;51.074;17.004;2022-12-28T03:57:43;23.70;55.30
39751;DHT22;37579;51.074;17.004;2022-12-28T04:00:17;23.70;55.20
39751;DHT22;37579;51.074;17.004;2022-12-28T04:02:42;23.80;55.30
39751;DHT22;37579;51.074;17.004;2022-12-28T04:05:09;23.80;55.00
39751;DHT22;37579;51.074;17.004;2022-12-28T04:07:38;23.70;55.10
39751;DHT22;37579;51.074;17.004;2022-12-28T04:10:04;23.70;55.00
39751;DHT22;37579;51.074;17.004;2022-12-28T04:12:30;23.80;55.00
39751;DHT22;37579;51.074;17.004;2022-12-28T04:15:21;23.80;55.00
39751;DHT22;37579;51.074;17.004;2022-12-28T04:17:47;23.70;55.10
39751;DHT22;37579;51.074;17.004;2022-12-28T04:20:13;23.70;55.00
39751;DHT22;37579;51.074;17.004;2022-12-28T04:22:39;23.70;55.20
39751;DHT22;37579;51.074;17.004;2022-12-28T04:25:05;23.70;55.10
39751;DHT22;37579;51.074;17.004;2022-12-28T04:27:33;23.70;55.30
39751;DHT22;37579;51.074;17.004;2022-12-28T04:30:04;23.60;55.40
39751;DHT22;37579;51.074;17.004;2022-12-28T04:32:33;23.60;55.40
39751;DHT22;37579;51.074;17.004;2022-12-28T04:35:01;23.60;55.40
39751;DHT22;37579;51.074;17.004;2022-12-28T04:37:30;23.60;55.40
39751;DHT22;37579;51.074;17.004;2022-12-28T04:39:55;23.60;55.60
39751;DHT22;37579;51.074;17.004;2022-12-28T04:42:22;23.60;55.50
39751;DHT22;37579;51.074;17.004;2022-12-28T04:44:47;23.50;55.50
39751;DHT22;37579;51.074;17.004;2022-12-28T04:47:13;23.60;55.50
39751;DHT22;37579;51.074;17.004;2022-12-28T04:49:39;23.50;55.60
39751;DHT22;37579;51.074;17.004;2022-12-28T04:52:05;23.40;55.60
39751;DHT22;37579;51.074;17.004;2022-12-28T04:54:30;23.50;55.70
39751;DHT22;37579;51.074;17.004;2022-12-28T04:56:56;23.40;55.70
39751;DHT22;37579;51.074;17.004;2022-12-28T04:59:22;23.40;55.80
39751;DHT22;37579;51.074;17.004;2022-12-28T05:01:48;23.40;55.80
39751;DHT22;37579;51.074;17.004;2022-12-28T05:04:14;23.40;55.80
39751;DHT22;37579;51.074;17.004;2022-12-28T05:06:39;23.40;55.80
39751;DHT22;37579;51.074;17.004;2022-12-28T05:09:05;23.40;55.80
39751;DHT22;37579;51.074;17.004;2022-12-28T05:11:31;23.40;55.90
39751;DHT22;37579;51.074;17.004;2022-12-28T05:13:57;23.40;55.80
39751;DHT22;37579;51.074;17.004;2022-12-28T05:16:25;23.40;55.80
39751;DHT22;37579;51.074;17.004;2022-12-28T05:18:51;23.50;55.50
39751;DHT22;37579;51.074;17.004;2022-12-28T05:21:36;23.60;55.00
39751;DHT22;37579;51.074;17.004;2022-12-28T05:24:02;23.80;54.70
39751;DHT22;37579;51.074;17.004;2022-12-28T05:26:28;23.80;54.40
39751;DHT22;37579;51.074;17.004;2022-12-28T05:28:57;23.80;54.20
39751;DHT22;37579;51.074;17.004;2022-12-28T05:31:23;23.90;54.20
39751;DHT22;37579;51.074;17.004;2022-12-28T05:33:50;23.90;54.00
39751;DHT22;37579;51.074;17.004;2022-12-28T05:36:18;23.90;53.90
39751;DHT22;37579;51.074;17.004;2022-12-28T05:38:44;23.90;53.80
39751;DHT22;37579;51.074;17.004;2022-12-28T05:41:16;24.00;53.70
39751;DHT22;37579;51.074;17.004;2022-12-28T05:43:43;24.00;53.60
39751;DHT22;37579;51.074;17.004;2022-12-28T05:46:12;24.10;53.60
39751;DHT22;37579;51.074;17.004;2022-12-28T05:48:39;24.00;53.50
39751;DHT22;37579;51.074;17.004;2022-12-28T05:51:08;24.10;53.40
39751;DHT22;37579;51.074;17.004;2022-12-28T05:53:34;24.10;53.40
39751;DHT22;37579;51.074;17.004;2022-12-28T05:58:31;24.10;53.30
39751;DHT22;37579;51.074;17.004;2022-12-28T06:01:09;24.10;53.20
39751;DHT22;37579;51.074;17.004;2022-12-28T06:03:35;24.10;53.20
39751;DHT22;37579;51.074;17.004;2022-12-28T06:06:13;24.10;53.20
39751;DHT22;37579;51.074;17.004;2022-12-28T06:08:40;24.10;53.20
39751;DHT22;37579;51.074;17.004;2022-12-28T06:11:09;24.10;53.10
39751;DHT22;37579;51.074;17.004;2022-12-28T06:13:35;24.10;53.00
39751;DHT22;37579;51.074;17.004;2022-12-28T06:18:35;24.10;53.00
39751;DHT22;37579;51.074;17.004;2022-12-28T06:21:13;24.10;53.00
39751;DHT22;37579;51.074;17.004;2022-12-28T06:23:40;24.10;53.00
39751;DHT22;37579;51.074;17.004;2022-12-28T06:26:07;24.10;52.90
39751;DHT22;37579;51.074;17.004;2022-12-28T06:28:35;24.10;53.00
39751;DHT22;37579;51.074;17.004;2022-12-28T06:31:03;24.10;53.00
39751;DHT22;37579;51.074;17.004;2022-12-28T06:33:29;24.10;53.00
39751;DHT22;37579;51.074;17.004;2022-12-28T06:35:55;24.10;53.00
39751;DHT22;37579;51.074;17.004;2022-12-28T06:38:21;24.10;53.00
39751;DHT22;37579;51.074;17.004;2022-12-28T06:40:47;24.10;53.00
39751;DHT22;37579;51.074;17.004;2022-12-28T06:43:14;24.10;53.00
39751;DHT22;37579;51.074;17.004;2022-12-28T06:45:39;24.10;53.00
39751;DHT22;37579;51.074;17.004;2022-12-28T06:48:05;24.10;53.00
39751;DHT22;37579;51.074;17.004;2022-12-28T06:50:31;24.10;53.00
39751;DHT22;37579;51.074;17.004;2022-12-28T06:52:57;24.10;53.00
39751;DHT22;37579;51.074;17.004;2022-12-28T06:55:23;24.10;53.00
39751;DHT22;37579;51.074;17.004;2022-12-28T06:57:48;24.10;53.00
39751;DHT22;37579;51.074;17.004;2022-12-28T07:00:14;24.10;53.00
39751;DHT22;37579;51.074;17.004;2022-12-28T07:02:40;24.10;53.00
39751;DHT22;37579;51.074;17.004;2022-12-28T07:05:06;24.10;53.00
39751;DHT22;37579;51.074;17.004;2022-12-28T07:07:32;24.10;53.70
39751;DHT22;37579;51.074;17.004;2022-12-28T07:09:58;24.10;53.00
39751;DHT22;37579;51.074;17.004;2022-12-28T07:12:24;24.10;53.00
39751;DHT22;37579;51.074;17.004;2022-12-28T07:14:50;24.10;53.10
39751;DHT22;37579;51.074;17.004;2022-12-28T07:17:15;24.10;53.00
39751;DHT22;37579;51.074;17.004;2022-12-28T07:19:41;24.10;53.00
39751;DHT22;37579;51.074;17.004;2022-12-28T07:22:07;24.00;53.00
39751;DHT22;37579;51.074;17.004;2022-12-28T07:24:33;24.10;53.10
39751;DHT22;37579;51.074;17.004;2022-12-28T07:26:59;24.10;53.00
39751;DHT22;37579;51.074;17.004;2022-12-28T07:29:24;24.10;53.00
39751;DHT22;37579;51.074;17.004;2022-12-28T07:31:50;24.10;53.00
39751;DHT22;37579;51.074;17.004;2022-12-28T07:34:16;24.10;53.00
39751;DHT22;37579;51.074;17.004;2022-12-28T07:36:42;24.10;53.00
39751;DHT22;37579;51.074;17.004;2022-12-28T07:39:08;24.10;52.90
39751;DHT22;37579;51.074;17.004;2022-12-28T07:41:35;24.10;52.90
39751;DHT22;37579;51.074;17.004;2022-12-28T07:44:04;24.10;52.90
39751;DHT22;37579;51.074;17.004;2022-12-28T07:46:32;24.10;53.10
39751;DHT22;37579;51.074;17.004;2022-12-28T07:48:59;24.10;53.10
39751;DHT22;37579;51.074;17.004;2022-12-28T07:51:30;24.10;53.10
39751;DHT22;37579;51.074;17.004;2022-12-28T07:53:57;24.10;53.00
39751;DHT22;37579;51.074;17.004;2022-12-28T07:56:25;24.10;53.10
39751;DHT22;37579;51.074;17.004;2022-12-28T07:58:53;24.10;53.70
39751;DHT22;37579;51.074;17.004;2022-12-28T08:01:20;24.10;53.00
39751;DHT22;37579;51.074;17.004;2022-12-28T08:03:47;24.10;53.10
39751;DHT22;37579;51.074;17.004;2022-12-28T08:06:16;24.10;53.40
39751;DHT22;37579;51.074;17.004;2022-12-28T08:08:45;24.10;53.70
39751;DHT22;37579;51.074;17.004;2022-12-28T08:11:14;24.10;53.90
39751;DHT22;37579;51.074;17.004;2022-12-28T08:13:43;24.10;54.10
39751;DHT22;37579;51.074;17.004;2022-12-28T08:16:10;24.10;54.30
39751;DHT22;37579;51.074;17.004;2022-12-28T08:18:38;24.20;54.40
39751;DHT22;37579;51.074;17.004;2022-12-28T08:21:09;24.30;54.30
39751;DHT22;37579;51.074;17.004;2022-12-28T08:23:35;24.30;54.20
39751;DHT22;37579;51.074;17.004;2022-12-28T08:26:07;24.40;54.20
39751;DHT22;37579;51.074;17.004;2022-12-28T08:28:34;24.40;54.20
39751;DHT22;37579;51.074;17.004;2022-12-28T08:31:17;24.40;54.20
39751;DHT22;37579;51.074;17.004;2022-12-28T08:33:43;24.50;54.10
39751;DHT22;37579;51.074;17.004;2022-12-28T08:36:10;24.60;54.20
39751;DHT22;37579;51.074;17.004;2022-12-28T08:38:37;24.50;54.10
39751;DHT22;37579;51.074;17.004;2022-12-28T08:41:05;24.50;54.10
39751;DHT22;37579;51.074;17.004;2022-12-28T08:43:32;24.50;54.00
39751;DHT22;37579;51.074;17.004;2022-12-28T08:46:04;24.50;54.00
39751;DHT22;37579;51.074;17.004;2022-12-28T08:48:31;24.50;54.00
39751;DHT22;37579;51.074;17.004;2022-12-28T08:51:06;24.50;54.00
39751;DHT22;37579;51.074;17.004;2022-12-28T08:53:33;24.50;54.00
39751;DHT22;37579;51.074;17.004;2022-12-28T08:56:10;24.60;54.20
39751;DHT22;37579;51.074;17.004;2022-12-28T08:58:38;24.60;54.10
39751;DHT22;37579;51.074;17.004;2022-12-28T09:01:08;24.60;54.10
39751;DHT22;37579;51.074;17.004;2022-12-28T09:03:39;24.60;54.10
39751;DHT22;37579;51.074;17.004;2022-12-28T09:06:10;24.60;54.00
39751;DHT22;37579;51.074;17.004;2022-12-28T09:08:36;24.60;54.10
39751;DHT22;37579;51.074;17.004;2022-12-28T09:11:11;24.60;54.20
39751;DHT22;37579;51.074;17.004;2022-12-28T09:13:38;24.70;54.20
39751;DHT22;37579;51.074;17.004;2022-12-28T09:16:10;24.60;54.10
39751;DHT22;37579;51.074;17.004;2022-12-28T09:18:37;24.60;54.20
39751;DHT22;37579;51.074;17.004;2022-12-28T09:21:12;24.70;54.10
39751;DHT22;37579;51.074;17.004;2022-12-28T09:23:39;24.60;54.20
39751;DHT22;37579;51.074;17.004;2022-12-28T09:28:49;24.70;54.20
39751;DHT22;37579;51.074;17.004;2022-12-28T09:31:15;24.60;54.30
39751;DHT22;37579;51.074;17.004;2022-12-28T09:33:41;24.60;54.30
39751;DHT22;37579;51.074;17.004;2022-12-28T09:36:31;24.60;54.50
39751;DHT22;37579;51.074;17.004;2022-12-28T09:38:59;24.40;54.50
39751;DHT22;37579;51.074;17.004;2022-12-28T09:41:38;24.50;54.60
39751;DHT22;37579;51.074;17.004;2022-12-28T09:49:31;24.50;54.40
39751;DHT22;37579;51.074;17.004;2022-12-28T09:54:54;24.50;54.60
39751;DHT22;37579;51.074;17.004;2022-12-28T09:57:22;24.40;54.60
39751;DHT22;37579;51.074;17.004;2022-12-28T09:59:48;24.50;54.60
39751;DHT22;37579;51.074;17.004;2022-12-28T10:02:28;24.40;54.60
39751;DHT22;37579;51.074;17.004;2022-12-28T10:04:55;24.40;55.30
39751;DHT22;37579;51.074;17.004;2022-12-28T10:07:21;24.40;54.80
39751;DHT22;37579;51.074;17.004;2022-12-28T10:09:47;24.40;54.70
39751;DHT22;37579;51.074;17.004;2022-12-28T10:12:16;24.40;54.70
39751;DHT22;37579;51.074;17.004;2022-12-28T10:14:45;24.40;54.50
39751;DHT22;37579;51.074;17.004;2022-12-28T10:17:13;24.40;54.50
39751;DHT22;37579;51.074;17.004;2022-12-28T10:19:40;24.40;54.40
39751;DHT22;37579;51.074;17.004;2022-12-28T10:22:14;24.40;54.40
39751;DHT22;37579;51.074;17.004;2022-12-28T10:24:42;24.50;54.40
39751;DHT22;37579;51.074;17.004;2022-12-28T10:27:17;24.50;54.40
39751;DHT22;37579;51.074;17.004;2022-12-28T10:29:43;24.60;54.60
39751;DHT22;37579;51.074;17.004;2022-12-28T10:32:09;24.60;54.60
39751;DHT22;37579;51.074;17.004;2022-12-28T10:34:54;24.50;54.60
39751;DHT22;37579;51.074;17.004;2022-12-28T10:37:22;24.50;54.80
39751;DHT22;37579;51.074;17.004;2022-12-28T10:39:54;24.50;54.90
39751;DHT22;37579;51.074;17.004;2022-12-28T10:45:17;24.50;55.00
39751;DHT22;37579;51.074;17.004;2022-12-28T10:47:47;24.50;55.00
39751;DHT22;37579;51.074;17.004;2022-12-28T10:50:41;24.50;55.90
39751;DHT22;37579;51.074;17.004;2022-12-28T10:53:57;24.50;55.20
39751;DHT22;37579;51.074;17.004;2022-12-28T10:56:18;24.50;55.20
39751;DHT22;37579;51.074;17.004;2022-12-28T10:58:46;24.50;55.30
39751;DHT22;37579;51.074;17.004;2022-12-28T11:03:41;24.50;55.10
39751;DHT22;37579;51.074;17.004;2022-12-28T11:06:12;24.60;55.20
39751;DHT22;37579;51.074;17.004;2022-12-28T11:08:39;24.50;55.10
39751;DHT22;37579;51.074;17.004;2022-12-28T11:11:06;24.50;55.10
39751;DHT22;37579;51.074;17.004;2022-12-28T11:13:32;24.50;55.00
39751;DHT22;37579;51.074;17.004;2022-12-28T11:15:59;24.60;54.80
39751;DHT22;37579;51.074;17.004;2022-12-28T11:18:25;24.60;54.80
39751;DHT22;37579;51.074;17.004;2022-12-28T11:20:53;24.70;54.60
39751;DHT22;37579;51.074;17.004;2022-12-28T11:23:24;24.80;54.50
39751;DHT22;37579;51.074;17.004;2022-12-28T11:25:51;24.70;54.50
39751;DHT22;37579;51.074;17.004;2022-12-28T11:28:21;24.80;54.60
39751;DHT22;37579;51.074;17.004;2022-12-28T11:30:49;24.80;54.40
39751;DHT22;37579;51.074;17.004;2022-12-28T11:33:40;24.80;54.40
39751;DHT22;37579;51.074;17.004;2022-12-28T11:36:18;24.80;54.40
39751;DHT22;37579;51.074;17.004;2022-12-28T11:38:46;24.80;54.20
39751;DHT22;37579;51.074;17.004;2022-12-28T11:43:57;24.70;51.70
39751;DHT22;37579;51.074;17.004;2022-12-28T11:49:04;24.60;51.50
39751;DHT22;37579;51.074;17.004;2022-12-28T11:51:31;24.50;52.60
39751;DHT22;37579;51.074;17.004;2022-12-28T11:54:01;24.50;52.60
39751;DHT22;37579;51.074;17.004;2022-12-28T11:59:35;24.50;52.50
39751;DHT22;37579;51.074;17.004;2022-12-28T12:04:44;24.40;53.00
39751;DHT22;37579;51.074;17.004;2022-12-28T12:07:17;24.40;52.60
39751;DHT22;37579;51.074;17.004;2022-12-28T12:09:46;24.40;52.70
39751;DHT22;37579;51.074;17.004;2022-12-28T12:15:01;24.50;52.60
39751;DHT22;37579;51.074;17.004;2022-12-28T12:18:01;24.50;52.70
39751;DHT22;37579;51.074;17.004;2022-12-28T12:23:20;24.50;52.90
39751;DHT22;37579;51.074;17.004;2022-12-28T12:25:48;24.40;53.10
39751;DHT22;37579;51.074;17.004;2022-12-28T12:28:41;24.30;53.20
39751;DHT22;37579;51.074;17.004;2022-12-28T12:33:51;24.30;52.80
39751;DHT22;37579;51.074;17.004;2022-12-28T12:42:00;24.40;52.70
39751;DHT22;37579;51.074;17.004;2022-12-28T12:58:56;24.40;52.90
39751;DHT22;37579;51.074;17.004;2022-12-28T13:01:41;24.40;52.70
39751;DHT22;37579;51.074;17.004;2022-12-28T13:04:20;24.40;52.80
39751;DHT22;37579;51.074;17.004;2022-12-28T13:06:48;24.40;53.00
39751;DHT22;37579;51.074;17.004;2022-12-28T13:09:17;24.40;53.10
39751;DHT22;37579;51.074;17.004;2022-12-28T13:11:44;24.40;53.10
39751;DHT22;37579;51.074;17.004;2022-12-28T13:14:19;24.40;53.30
39751;DHT22;37579;51.074;17.004;2022-12-28T13:16:54;24.40;53.20
39751;DHT22;37579;51.074;17.004;2022-12-28T13:19:26;24.40;53.30
39751;DHT22;37579;51.074;17.004;2022-12-28T13:21:52;24.40;53.40
39751;DHT22;37579;51.074;17.004;2022-12-28T13:24:27;24.40;53.30
39751;DHT22;37579;51.074;17.004;2022-12-28T13:26:55;24.40;54.00
39751;DHT22;37579;51.074;17.004;2022-12-28T13:29:23;24.40;53.40
39751;DHT22;37579;51.074;17.004;2022-12-28T13:31:50;24.40;53.40
39751;DHT22;37579;51.074;17.004;2022-12-28T13:34:31;24.50;53.40
39751;DHT22;37579;51.074;17.004;2022-12-28T13:37:02;24.40;53.20
39751;DHT22;37579;51.074;17.004;2022-12-28T13:39:32;24.40;53.50
39751;DHT22;37579;51.074;17.004;2022-12-28T13:42:02;24.40;53.60
39751;DHT22;37579;51.074;17.004;2022-12-28T13:47:26;24.40;53.40
39751;DHT22;37579;51.074;17.004;2022-12-28T13:50:04;24.40;53.60
39751;DHT22;37579;51.074;17.004;2022-12-28T13:52:56;24.40;53.50
39751;DHT22;37579;51.074;17.004;2022-12-28T13:55:47;24.30;52.40
39751;DHT22;37579;51.074;17.004;2022-12-28T13:58:27;24.30;53.00
39751;DHT22;37579;51.074;17.004;2022-12-28T14:00:55;24.30;52.80
39751;DHT22;37579;51.074;17.004;2022-12-28T14:03:22;24.30;52.80
39751;DHT22;37579;51.074;17.004;2022-12-28T14:05:52;24.30;52.80
39751;DHT22;37579;51.074;17.004;2022-12-28T14:08:25;24.20;52.80
39751;DHT22;37579;51.074;17.004;2022-12-28T14:10:52;24.20;52.90
39751;DHT22;37579;51.074;17.004;2022-12-28T14:13:18;24.20;53.00
39751;DHT22;37579;51.074;17.004;2022-12-28T14:15:45;24.20;52.90
39751;DHT22;37579;51.074;17.004;2022-12-28T14:18:16;24.20;53.30
39751;DHT22;37579;51.074;17.004;2022-12-28T14:20:47;24.20;53.50
39751;DHT22;37579;51.074;17.004;2022-12-28T14:23:31;24.20;53.80
39751;DHT22;37579;51.074;17.004;2022-12-28T14:25:59;24.30;54.20
39751;DHT22;37579;51.074;17.004;2022-12-28T14:28:42;24.20;54.30
39751;DHT22;37579;51.074;17.004;2022-12-28T14:31:12;24.20;54.30
39751;DHT22;37579;51.074;17.004;2022-12-28T14:33:54;24.20;54.40
39751;DHT22;37579;51.074;17.004;2022-12-28T14:36:26;24.20;54.50
39751;DHT22;37579;51.074;17.004;2022-12-28T14:38:53;24.10;54.60
39751;DHT22;37579;51.074;17.004;2022-12-28T14:41:40;24.10;54.80
39751;DHT22;37579;51.074;17.004;2022-12-28T14:44:20;24.00;55.00
39751;DHT22;37579;51.074;17.004;2022-12-28T14:46:49;24.00;55.20
39751;DHT22;37579;51.074;17.004;2022-12-28T14:54:50;23.90;55.30
39751;DHT22;37579;51.074;17.004;2022-12-28T14:57:40;24.00;55.30
39751;DHT22;37579;51.074;17.004;2022-12-28T15:02:45;24.00;55.20
39751;DHT22;37579;51.074;17.004;2022-12-28T15:07:58;24.10;55.10
39751;DHT22;37579;51.074;17.004;2022-12-28T15:10:24;24.20;54.70
39751;DHT22;37579;51.074;17.004;2022-12-28T15:12:50;24.30;54.70
39751;DHT22;37579;51.074;17.004;2022-12-28T15:15:16;24.30;55.30
39751;DHT22;37579;51.074;17.004;2022-12-28T15:17:42;24.40;54.70
39751;DHT22;37579;51.074;17.004;2022-12-28T15:20:08;24.40;54.80
39751;DHT22;37579;51.074;17.004;2022-12-28T15:22:34;24.50;55.00
39751;DHT22;37579;51.074;17.004;2022-12-28T15:25:00;24.40;55.10
39751;DHT22;37579;51.074;17.004;2022-12-28T15:27:27;24.50;55.00
39751;DHT22;37579;51.074;17.004;2022-12-28T15:29:53;24.50;54.90
39751;DHT22;37579;51.074;17.004;2022-12-28T15:32:19;24.60;54.90
39751;DHT22;37579;51.074;17.004;2022-12-28T15:34:45;24.70;54.60
39751;DHT22;37579;51.074;17.004;2022-12-28T15:37:10;24.70;54.60
39751;DHT22;37579;51.074;17.004;2022-12-28T15:39:36;24.80;54.60
39751;DHT22;37579;51.074;17.004;2022-12-28T15:42:02;24.70;54.70
39751;DHT22;37579;51.074;17.004;2022-12-28T15:44:28;24.80;54.80
39751;DHT22;37579;51.074;17.004;2022-12-28T15:46:54;24.80;54.70
39751;DHT22;37579;51.074;17.004;2022-12-28T15:49:20;24.80;54.40
39751;DHT22;37579;51.074;17.004;2022-12-28T15:51:45;24.90;54.40
39751;DHT22;37579;51.074;17.004;2022-12-28T15:54:12;24.90;53.90
39751;DHT22;37579;51.074;17.004;2022-12-28T15:56:39;25.00;53.80
39751;DHT22;37579;51.074;17.004;2022-12-28T15:59:12;25.00;53.40
39751;DHT22;37579;51.074;17.004;2022-12-28T16:01:38;25.10;53.30
39751;DHT22;37579;51.074;17.004;2022-12-28T16:04:04;25.20;53.20
39751;DHT22;37579;51.074;17.004;2022-12-28T16:06:32;25.20;53.10
39751;DHT22;37579;51.074;17.004;2022-12-28T16:08:59;25.20;53.70
39751;DHT22;37579;51.074;17.004;2022-12-28T16:11:27;25.20;52.80
39751;DHT22;37579;51.074;17.004;2022-12-28T16:13:59;25.20;53.00
39751;DHT22;37579;51.074;17.004;2022-12-28T16:16:28;25.20;53.10
39751;DHT22;37579;51.074;17.004;2022-12-28T16:18:55;25.20;53.00
39751;DHT22;37579;51.074;17.004;2022-12-28T16:21:27;25.20;53.00
39751;DHT22;37579;51.074;17.004;2022-12-28T16:23:53;25.20;52.60
39751;DHT22;37579;51.074;17.004;2022-12-28T16:26:19;25.30;52.80
39751;DHT22;37579;51.074;17.004;2022-12-28T16:28:45;25.40;52.80
39751;DHT22;37579;51.074;17.004;2022-12-28T16:31:34;25.40;52.50
39751;DHT22;37579;51.074;17.004;2022-12-28T16:34:14;25.40;52.50
39751;DHT22;37579;51.074;17.004;2022-12-28T16:36:41;25.40;52.40
39751;DHT22;37579;51.074;17.004;2022-12-28T16:39:11;25.50;52.40
39751;DHT22;37579;51.074;17.004;2022-12-28T16:41:37;25.50;53.20
39751;DHT22;37579;51.074;17.004;2022-12-28T16:44:06;25.40;52.70
39751;DHT22;37579;51.074;17.004;2022-12-28T16:46:32;25.50;52.40
39751;DHT22;37579;51.074;17.004;2022-12-28T16:49:01;25.40;52.20
39751;DHT22;37579;51.074;17.004;2022-12-28T16:51:28;25.50;52.30
39751;DHT22;37579;51.074;17.004;2022-12-28T16:53:54;25.50;52.20
39751;DHT22;37579;51.074;17.004;2022-12-28T16:56:20;25.50;52.40
39751;DHT22;37579;51.074;17.004;2022-12-28T16:58:46;25.50;52.30
39751;DHT22;37579;51.074;17.004;2022-12-28T17:01:12;25.50;52.30
39751;DHT22;37579;51.074;17.004;2022-12-28T17:03:38;25.40;52.40
39751;DHT22;37579;51.074;17.004;2022-12-28T17:06:04;25.40;52.30
39751;DHT22;37579;51.074;17.004;2022-12-28T17:08:31;25.50;52.40
39751;DHT22;37579;51.074;17.004;2022-12-28T17:10:58;25.50;52.40
39751;DHT22;37579;51.074;17.004;2022-12-28T17:13:24;25.50;52.20
39751;DHT22;37579;51.074;17.004;2022-12-28T17:15:50;25.50;52.30
39751;DHT22;37579;51.074;17.004;2022-12-28T17:18:15;25.50;52.40
39751;DHT22;37579;51.074;17.004;2022-12-28T17:20:43;25.40;52.40